createdAt,value
2022-11-26T00:00:31.426Z,7.70
2022-11-26T00:02:59.391Z,7.70
2022-11-26T00:05:32.616Z,7.70
2022-11-26T00:08:02.005Z,7.70
2022-11-26T00:10:36.343Z,7.60
2022-11-26T00:13:04.167Z,7.60
2022-11-26T00:15:32.946Z,7.70
2022-11-26T00:18:01.126Z,7.70
2022-11-26T00:20:31.908Z,7.70
2022-11-26T00:23:03.194Z,7.60
2022-11-26T00:25:39.533Z,7.70
2022-11-26T00:28:30.470Z,7.60
2022-11-26T00:31:00.434Z,7.70
2022-11-26T00:33:29.739Z,7.60
2022-11-26T00:36:00.015Z,7.60
2022-11-26T00:38:28.564Z,7.70
2022-11-26T00:40:58.001Z,7.70
2022-11-26T00:43:25.847Z,7.60
2022-11-26T00:45:53.742Z,7.60
2022-11-26T00:48:21.659Z,7.60
2022-11-26T00:50:51.831Z,7.60
2022-11-26T00:53:23.485Z,7.60
2022-11-26T00:55:51.760Z,7.60
2022-11-26T00:58:27.074Z,7.60
2022-11-26T01:00:56.441Z,7.60
2022-11-26T01:03:24.646Z,7.60
2022-11-26T01:05:54.574Z,7.60
2022-11-26T01:08:29.504Z,7.60
2022-11-26T01:10:57.528Z,7.70
2022-11-26T01:13:27.466Z,7.60
2022-11-26T01:15:55.775Z,7.60
2022-11-26T01:18:24.167Z,7.90
2022-11-26T01:20:52.313Z,7.60
2022-11-26T01:23:21.317Z,7.50
2022-11-26T01:25:49.270Z,7.70
2022-11-26T01:28:19.132Z,7.70
2022-11-26T01:30:48.327Z,7.70
2022-11-26T01:33:16.136Z,7.70
2022-11-26T01:35:43.961Z,7.70
2022-11-26T01:38:15.046Z,7.60
2022-11-26T01:41:05.841Z,7.70
2022-11-26T01:43:38.304Z,7.60
2022-11-26T01:46:14.555Z,7.60
2022-11-26T01:48:42.459Z,7.60
2022-11-26T01:51:11.851Z,7.70
2022-11-26T01:53:46.650Z,7.60
2022-11-26T01:56:21.587Z,7.70
2022-11-26T01:58:55.078Z,7.60
2022-11-26T02:01:24.687Z,7.60
2022-11-26T02:04:00.536Z,7.60
2022-11-26T02:06:32.906Z,7.60
2022-11-26T02:09:02.328Z,7.70
2022-11-26T02:11:30.328Z,7.60
2022-11-26T02:14:02.149Z,7.60
2022-11-26T02:16:46.362Z,7.60
2022-11-26T02:19:36.310Z,7.60
2022-11-26T02:22:10.419Z,7.60
2022-11-26T02:24:49.586Z,7.60
2022-11-26T02:27:42.100Z,7.60
2022-11-26T02:30:13.325Z,7.60
2022-11-26T02:33:02.464Z,7.60
2022-11-26T02:35:36.396Z,7.60
2022-11-26T02:38:08.778Z,7.60
2022-11-26T02:40:36.667Z,7.60
2022-11-26T02:43:04.516Z,7.60
2022-11-26T02:45:38.105Z,7.60
2022-11-26T02:48:11.076Z,7.60
2022-11-26T02:50:43.404Z,7.60
2022-11-26T02:53:11.841Z,7.60
2022-11-26T02:55:43.890Z,7.70
2022-11-26T02:58:11.796Z,7.60
2022-11-26T03:00:43.725Z,7.60
2022-11-26T03:03:22.806Z,7.60
2022-11-26T03:05:53.741Z,7.50
2022-11-26T03:08:22.904Z,7.60
2022-11-26T03:10:50.732Z,7.70
2022-11-26T03:13:18.623Z,7.60
2022-11-26T03:15:48.498Z,7.90
2022-11-26T03:18:16.383Z,7.60
2022-11-26T03:20:44.234Z,7.60
2022-11-26T03:23:12.101Z,7.60
2022-11-26T03:25:40.028Z,7.60
2022-11-26T03:28:07.939Z,7.60
2022-11-26T03:30:35.968Z,7.60
2022-11-26T03:33:05.234Z,7.60
2022-11-26T03:35:33.051Z,7.60
2022-11-26T03:38:00.854Z,7.60
2022-11-26T03:40:28.684Z,7.60
2022-11-26T03:42:56.477Z,7.80
2022-11-26T03:45:24.328Z,7.60
2022-11-26T03:47:52.177Z,7.60
2022-11-26T03:50:21.381Z,7.60
2022-11-26T03:52:49.211Z,7.60
2022-11-26T03:55:17.152Z,7.60
2022-11-26T03:57:44.977Z,7.60
2022-11-26T04:00:14.589Z,7.60
2022-11-26T04:02:42.569Z,7.60
2022-11-26T04:05:10.603Z,7.60
2022-11-26T04:07:39.864Z,7.80
2022-11-26T04:10:09.215Z,7.60
2022-11-26T04:12:37.084Z,7.60
2022-11-26T04:15:05.514Z,7.60
2022-11-26T04:17:33.330Z,7.60
2022-11-26T04:20:01.156Z,7.60
2022-11-26T04:22:28.959Z,7.60
2022-11-26T04:24:58.107Z,7.60
2022-11-26T04:27:25.924Z,7.60
2022-11-26T04:29:53.717Z,7.60
2022-11-26T04:32:21.522Z,7.60
2022-11-26T04:34:49.340Z,7.70
2022-11-26T04:37:17.160Z,7.60
2022-11-26T04:39:44.980Z,7.60
2022-11-26T04:42:14.151Z,7.60
2022-11-26T04:44:41.956Z,7.80
2022-11-26T04:47:09.788Z,7.60
2022-11-26T04:49:37.604Z,7.50
2022-11-26T04:52:05.777Z,7.60
2022-11-26T04:54:33.634Z,7.60
2022-11-26T04:57:01.470Z,7.60
2022-11-26T04:59:30.692Z,7.60
2022-11-26T05:01:59.547Z,7.60
2022-11-26T05:04:27.487Z,7.50
2022-11-26T05:06:55.399Z,7.60
2022-11-26T05:09:23.608Z,7.60
2022-11-26T05:11:51.422Z,7.50
2022-11-26T05:14:19.300Z,7.60
2022-11-26T05:16:48.614Z,7.50
2022-11-26T05:19:16.525Z,7.50
2022-11-26T05:21:44.376Z,7.60
2022-11-26T05:24:12.166Z,7.40
2022-11-26T05:26:40.001Z,7.80
2022-11-26T05:29:07.846Z,7.50
2022-11-26T05:31:35.724Z,7.50
2022-11-26T05:34:05.171Z,7.50
2022-11-26T05:36:33.464Z,7.50
2022-11-26T05:39:01.395Z,7.50
2022-11-26T05:41:29.263Z,7.50
2022-11-26T05:43:57.095Z,7.50
2022-11-26T05:46:24.999Z,7.60
2022-11-26T05:48:52.822Z,7.50
2022-11-26T05:51:22.018Z,7.50
2022-11-26T05:53:49.823Z,7.50
2022-11-26T05:56:17.663Z,7.50
2022-11-26T05:58:45.607Z,7.50
2022-11-26T06:01:13.671Z,7.60
2022-11-26T06:03:42.396Z,7.50
2022-11-26T06:06:10.571Z,7.50
2022-11-26T06:08:39.762Z,7.60
2022-11-26T06:11:07.688Z,7.60
2022-11-26T06:13:35.562Z,7.60
2022-11-26T06:16:03.512Z,7.60
2022-11-26T06:18:31.360Z,7.60
2022-11-26T06:21:01.400Z,7.60
2022-11-26T06:23:29.357Z,7.50
2022-11-26T06:25:58.571Z,7.60
2022-11-26T06:28:26.586Z,7.60
2022-11-26T06:30:54.493Z,7.50
2022-11-26T06:33:22.338Z,7.60
2022-11-26T06:35:50.188Z,7.50
2022-11-26T06:38:18.043Z,7.60
2022-11-26T06:40:45.883Z,7.60
2022-11-26T06:43:15.094Z,7.60
2022-11-26T06:45:42.947Z,7.60
2022-11-26T06:48:10.831Z,7.50
2022-11-26T06:50:38.643Z,7.60
2022-11-26T06:53:06.488Z,7.50
2022-11-26T06:55:34.326Z,7.40
2022-11-26T06:58:02.152Z,7.50
2022-11-26T07:00:31.312Z,7.50
2022-11-26T07:02:59.245Z,7.50
2022-11-26T07:05:27.199Z,7.50
2022-11-26T07:07:55.106Z,7.50
2022-11-26T07:10:23.010Z,7.50
2022-11-26T07:12:50.836Z,7.50
2022-11-26T07:15:18.819Z,7.60
2022-11-26T07:17:48.011Z,7.50
2022-11-26T07:20:16.125Z,7.50
2022-11-26T07:22:43.979Z,7.50
2022-11-26T07:25:12.921Z,7.40
2022-11-26T07:27:41.248Z,7.60
2022-11-26T07:30:10.227Z,7.50
2022-11-26T07:32:38.073Z,7.50
2022-11-26T07:35:07.959Z,7.50
2022-11-26T07:37:35.871Z,7.50
2022-11-26T07:40:04.452Z,7.60
2022-11-26T07:42:33.193Z,7.50
2022-11-26T07:45:01.614Z,7.60
2022-11-26T07:47:29.457Z,7.60
2022-11-26T07:49:57.282Z,7.60
2022-11-26T07:52:26.510Z,7.60
2022-11-26T07:54:54.343Z,7.60
2022-11-26T07:57:22.943Z,7.60
2022-11-26T07:59:50.748Z,7.60
2022-11-26T08:02:19.154Z,7.60
2022-11-26T08:04:47.071Z,7.60
2022-11-26T08:07:22.100Z,7.60
2022-11-26T08:09:55.184Z,7.60
2022-11-26T08:12:23.052Z,7.60
2022-11-26T08:14:50.884Z,7.60
2022-11-26T08:17:18.714Z,7.60
2022-11-26T08:19:46.560Z,7.60
2022-11-26T08:22:14.458Z,7.60
2022-11-26T08:24:42.288Z,7.70
2022-11-26T08:27:11.876Z,7.60
2022-11-26T08:29:39.863Z,7.50
2022-11-26T08:32:07.777Z,7.70
2022-11-26T08:34:36.009Z,7.70
2022-11-26T08:37:04.143Z,7.70
2022-11-26T08:39:31.995Z,7.70
2022-11-26T08:41:59.867Z,7.80
2022-11-26T08:44:29.079Z,7.70
2022-11-26T08:46:56.933Z,7.80
2022-11-26T08:49:24.876Z,7.80
2022-11-26T08:51:52.685Z,7.70
2022-11-26T08:54:20.545Z,7.80
2022-11-26T08:56:48.357Z,7.80
2022-11-26T08:59:17.405Z,7.70
2022-11-26T09:01:47.067Z,7.80
2022-11-26T09:04:14.952Z,7.80
2022-11-26T09:06:42.935Z,7.80
2022-11-26T09:09:13.972Z,7.80
2022-11-26T09:11:44.077Z,7.80
2022-11-26T09:14:13.309Z,7.80
2022-11-26T09:16:41.356Z,7.90
2022-11-26T09:19:14.642Z,7.80
2022-11-26T09:21:42.796Z,8.00
2022-11-26T09:24:10.651Z,8.00
2022-11-26T09:26:38.664Z,8.00
2022-11-26T09:29:06.661Z,8.00
2022-11-26T09:31:34.570Z,7.90
2022-11-26T09:34:03.118Z,7.90
2022-11-26T09:36:32.646Z,7.90
2022-11-26T09:39:01.087Z,8.00
2022-11-26T09:41:41.866Z,8.00
2022-11-26T09:44:25.340Z,8.00
2022-11-26T09:47:13.819Z,7.90
2022-11-26T09:49:53.148Z,7.90
2022-11-26T09:52:24.883Z,7.90
2022-11-26T09:55:09.168Z,7.90
2022-11-26T09:57:42.837Z,7.90
2022-11-26T10:00:27.764Z,7.90
2022-11-26T10:02:57.285Z,8.00
2022-11-26T10:05:38.292Z,8.10
2022-11-26T10:08:18.653Z,8.10
2022-11-26T10:10:51.353Z,8.10
2022-11-26T10:13:30.147Z,8.10
2022-11-26T10:16:08.788Z,8.10
2022-11-26T10:18:45.021Z,8.20
2022-11-26T10:21:26.968Z,8.10
2022-11-26T10:24:07.070Z,8.20
2022-11-26T10:26:39.198Z,8.20
2022-11-26T10:29:21.556Z,8.20
2022-11-26T10:31:51.236Z,8.20
2022-11-26T10:34:21.649Z,8.30
2022-11-26T10:36:50.549Z,8.20
2022-11-26T10:39:21.619Z,8.30
2022-11-26T10:41:49.915Z,8.30
2022-11-26T10:44:37.289Z,8.30
2022-11-26T10:47:25.031Z,8.30
2022-11-26T10:49:54.426Z,8.30
2022-11-26T10:52:27.682Z,8.30
2022-11-26T10:55:20.447Z,8.30
2022-11-26T10:57:52.059Z,8.30
2022-11-26T11:00:38.788Z,8.30
2022-11-26T11:03:32.883Z,8.20
2022-11-26T11:06:28.972Z,8.30
2022-11-26T11:08:57.103Z,8.20
2022-11-26T11:11:28.827Z,8.20
2022-11-26T11:13:57.321Z,8.20
2022-11-26T11:16:29.649Z,8.10
2022-11-26T11:19:00.474Z,8.10
2022-11-26T11:21:34.266Z,8.10
2022-11-26T11:24:10.986Z,8.10
2022-11-26T11:26:46.355Z,8.00
2022-11-26T11:29:32.855Z,8.10
2022-11-26T11:32:04.378Z,8.10
2022-11-26T11:34:35.647Z,8.10
2022-11-26T11:37:07.301Z,8.10
2022-11-26T11:39:37.378Z,8.10
2022-11-26T11:42:15.541Z,8.20
2022-11-26T11:44:47.266Z,8.20
2022-11-26T11:47:28.624Z,8.20
2022-11-26T11:50:18.212Z,8.20
2022-11-26T11:52:57.068Z,8.30
2022-11-26T11:55:35.860Z,8.30
2022-11-26T11:58:20.738Z,8.30
2022-11-26T12:00:53.092Z,8.40
2022-11-26T12:03:37.027Z,8.40
2022-11-26T12:06:16.158Z,8.40
2022-11-26T12:08:56.579Z,8.40
2022-11-26T12:11:34.236Z,8.40
2022-11-26T12:14:07.438Z,8.40
2022-11-26T12:16:39.032Z,8.40
2022-11-26T12:19:13.322Z,8.40
2022-11-26T12:21:46.410Z,8.40
2022-11-26T12:24:27.807Z,8.40
2022-11-26T12:27:01.106Z,8.40
2022-11-26T12:29:36.301Z,8.50
2022-11-26T12:32:10.268Z,8.50
2022-11-26T12:34:44.637Z,8.50
2022-11-26T12:37:18.683Z,8.50
2022-11-26T12:39:54.133Z,8.50
2022-11-26T12:42:28.574Z,8.50
2022-11-26T12:45:05.559Z,8.50
2022-11-26T12:47:39.404Z,8.60
2022-11-26T12:50:12.852Z,8.50
2022-11-26T12:52:45.332Z,8.60
2022-11-26T12:55:20.693Z,8.50
2022-11-26T12:57:53.691Z,8.50
2022-11-26T13:00:31.372Z,8.50
2022-11-26T13:03:03.286Z,8.50
2022-11-26T13:05:39.307Z,8.50
2022-11-26T13:08:18.231Z,8.50
2022-11-26T13:11:00.416Z,8.50
2022-11-26T13:13:39.356Z,8.50
2022-11-26T13:16:18.663Z,8.50
2022-11-26T13:18:51.440Z,8.50
2022-11-26T13:21:35.121Z,8.50
2022-11-26T13:24:39.381Z,8.50
2022-11-26T13:27:26.889Z,8.50
2022-11-26T13:30:12.614Z,8.40
2022-11-26T13:33:03.344Z,8.40
2022-11-26T13:36:00.434Z,9.30
2022-11-26T13:38:36.065Z,8.50
2022-11-26T13:41:19.967Z,8.50
2022-11-26T13:44:15.046Z,8.50
2022-11-26T13:46:46.637Z,8.50
2022-11-26T13:49:22.744Z,8.80
2022-11-26T13:51:53.859Z,8.50
2022-11-26T13:54:26.866Z,8.50
2022-11-26T13:57:00.430Z,8.40
2022-11-26T13:59:29.920Z,8.50
2022-11-26T14:01:58.067Z,8.70
2022-11-26T14:04:54.624Z,8.90
2022-11-26T14:07:22.808Z,9.30
2022-11-26T14:09:53.475Z,9.50
2022-11-26T14:12:22.476Z,9.60
2022-11-26T14:14:51.091Z,9.70
2022-11-26T14:17:29.949Z,9.70
2022-11-26T14:20:12.036Z,9.70
2022-11-26T14:22:40.143Z,9.90
2022-11-26T14:25:11.371Z,9.90
2022-11-26T14:27:42.742Z,9.90
2022-11-26T14:30:28.324Z,9.80
2022-11-26T14:33:06.400Z,9.70
2022-11-26T14:35:37.732Z,9.60
2022-11-26T14:38:07.657Z,9.50
2022-11-26T14:40:37.518Z,9.50
2022-11-26T14:43:17.177Z,9.30
2022-11-26T14:45:47.737Z,9.30
2022-11-26T14:48:25.598Z,9.20
2022-11-26T14:50:58.184Z,9.10
2022-11-26T14:53:29.031Z,9.00
2022-11-26T14:55:57.974Z,9.00
2022-11-26T14:58:31.959Z,8.90
2022-11-26T15:01:09.277Z,8.90
2022-11-26T15:03:37.347Z,8.80
2022-11-26T15:06:07.091Z,8.70
2022-11-26T15:08:34.962Z,8.70
2022-11-26T15:11:06.580Z,8.70
2022-11-26T15:13:38.165Z,8.60
2022-11-26T15:16:27.435Z,8.60
2022-11-26T15:18:56.205Z,8.50
2022-11-26T15:21:27.592Z,9.00
2022-11-26T15:23:59.790Z,8.50
2022-11-26T15:26:33.112Z,8.40
2022-11-26T15:29:00.984Z,8.40
2022-11-26T15:31:40.556Z,8.40
2022-11-26T15:34:13.458Z,8.30
2022-11-26T15:36:42.787Z,8.30
2022-11-26T15:39:25.892Z,8.30
2022-11-26T15:41:56.061Z,8.30
2022-11-26T15:44:26.947Z,8.20
2022-11-26T15:46:57.489Z,8.10
2022-11-26T15:49:29.822Z,8.10
2022-11-26T15:52:00.829Z,8.10
2022-11-26T15:54:49.474Z,8.10
2022-11-26T15:57:24.768Z,8.00
2022-11-26T15:59:56.133Z,8.00
2022-11-26T16:02:26.068Z,7.90
2022-11-26T16:04:54.916Z,7.90
2022-11-26T16:07:25.452Z,7.90
2022-11-26T16:10:12.389Z,7.90
2022-11-26T16:12:44.560Z,7.80
2022-11-26T16:15:23.569Z,7.80
2022-11-26T16:17:52.093Z,7.80
2022-11-26T16:20:22.472Z,7.70
2022-11-26T16:22:53.225Z,7.70
2022-11-26T16:25:23.908Z,7.70
2022-11-26T16:28:14.213Z,7.60
2022-11-26T16:30:44.575Z,7.50
2022-11-26T16:33:12.565Z,7.60
2022-11-26T16:35:46.021Z,7.60
2022-11-26T16:38:21.509Z,7.50
2022-11-26T16:40:49.956Z,7.50
2022-11-26T16:43:18.874Z,7.50
2022-11-26T16:45:47.383Z,7.50
2022-11-26T16:48:24.972Z,7.40
2022-11-26T16:50:53.164Z,7.30
2022-11-26T16:53:22.771Z,7.40
2022-11-26T16:55:51.902Z,7.50
2022-11-26T16:58:27.804Z,7.40
2022-11-26T17:00:56.687Z,7.30
2022-11-26T17:03:25.169Z,7.30
2022-11-26T17:05:55.923Z,7.30
2022-11-26T17:08:25.339Z,7.20
2022-11-26T17:10:53.176Z,7.30
2022-11-26T17:13:21.146Z,7.40
2022-11-26T17:15:50.494Z,7.20
2022-11-26T17:18:20.671Z,7.20
2022-11-26T17:20:48.954Z,7.10
2022-11-26T17:23:17.055Z,7.10
2022-11-26T17:25:49.415Z,7.10
2022-11-26T17:28:17.111Z,7.10
2022-11-26T17:30:45.732Z,7.10
2022-11-26T17:33:13.960Z,7.00
2022-11-26T17:35:41.936Z,7.00
2022-11-26T17:38:15.760Z,6.90
2022-11-26T17:40:44.084Z,6.90
2022-11-26T17:43:13.368Z,6.90
2022-11-26T17:45:41.657Z,6.90
2022-11-26T17:48:13.886Z,6.90
2022-11-26T17:50:42.634Z,6.90
2022-11-26T17:53:10.558Z,6.90
2022-11-26T17:55:39.019Z,6.90
2022-11-26T17:58:06.856Z,6.90
2022-11-26T18:00:36.033Z,6.80
2022-11-26T18:03:04.111Z,7.10
2022-11-26T18:05:32.113Z,6.80
2022-11-26T18:07:59.984Z,6.80
2022-11-26T18:10:27.871Z,6.80
2022-11-26T18:12:56.061Z,6.90
2022-11-26T18:15:25.722Z,7.20
2022-11-26T18:17:56.041Z,7.00
2022-11-26T18:20:25.768Z,6.80
2022-11-26T18:22:55.516Z,6.80
2022-11-26T18:25:23.845Z,7.10
2022-11-26T18:27:52.338Z,6.70
2022-11-26T18:30:21.166Z,6.80
2022-11-26T18:32:49.096Z,6.70
2022-11-26T18:35:18.480Z,6.70
2022-11-26T18:37:46.423Z,6.70
2022-11-26T18:40:17.725Z,6.70
2022-11-26T18:42:45.865Z,6.60
2022-11-26T18:45:16.439Z,6.70
2022-11-26T18:47:44.458Z,6.70
2022-11-26T18:50:13.790Z,6.70
2022-11-26T18:52:42.962Z,6.60
2022-11-26T18:55:11.160Z,6.60
2022-11-26T18:57:39.028Z,6.60
2022-11-26T19:00:09.024Z,6.60
2022-11-26T19:02:37.434Z,6.60
2022-11-26T19:05:05.825Z,6.50
2022-11-26T19:07:34.193Z,6.60
2022-11-26T19:10:03.670Z,6.60
2022-11-26T19:12:31.561Z,6.50
2022-11-26T19:14:59.429Z,6.50
2022-11-26T19:17:27.315Z,6.50
2022-11-26T19:19:55.152Z,6.40
2022-11-26T19:22:23.000Z,6.40
2022-11-26T19:24:50.811Z,6.80
2022-11-26T19:27:20.001Z,6.60
2022-11-26T19:29:47.843Z,6.40
2022-11-26T19:32:15.685Z,6.30
2022-11-26T19:34:43.523Z,6.30
2022-11-26T19:37:11.352Z,6.00
2022-11-26T19:39:39.444Z,6.30
2022-11-26T19:42:07.500Z,6.10
2022-11-26T19:44:37.101Z,6.30
2022-11-26T19:47:05.459Z,6.20
2022-11-26T19:49:33.837Z,6.20
2022-11-26T19:52:01.703Z,6.20
2022-11-26T19:54:29.574Z,6.00
2022-11-26T19:56:57.408Z,6.20
2022-11-26T19:59:25.252Z,6.20
2022-11-26T20:01:55.892Z,6.20
2022-11-26T20:04:27.363Z,6.20
2022-11-26T20:06:55.261Z,6.20
2022-11-26T20:09:23.933Z,6.10
2022-11-26T20:11:51.742Z,6.20
2022-11-26T20:14:19.843Z,6.10
2022-11-26T20:16:47.682Z,6.10
2022-11-26T20:19:17.971Z,6.10
2022-11-26T20:21:45.833Z,6.10
2022-11-26T20:24:16.978Z,6.10
2022-11-26T20:26:48.473Z,6.10
2022-11-26T20:29:20.005Z,6.10
2022-11-26T20:31:49.799Z,6.10
2022-11-26T20:34:21.215Z,6.10
2022-11-26T20:36:49.734Z,6.10
2022-11-26T20:39:20.386Z,6.00
2022-11-26T20:41:48.836Z,6.10
2022-11-26T20:44:17.138Z,6.00
2022-11-26T20:46:44.983Z,5.90
2022-11-26T20:49:12.943Z,6.00
2022-11-26T20:51:42.157Z,6.00
2022-11-26T20:54:10.961Z,6.00
2022-11-26T20:56:38.937Z,5.90
2022-11-26T20:59:09.527Z,5.90
2022-11-26T21:01:38.505Z,5.90
2022-11-26T21:04:06.811Z,5.80
2022-11-26T21:06:35.711Z,5.80
2022-11-26T21:09:06.420Z,5.80
2022-11-26T21:11:34.652Z,5.80
2022-11-26T21:14:02.660Z,5.80
2022-11-26T21:16:31.343Z,5.80
2022-11-26T21:18:59.884Z,5.80
2022-11-26T21:21:29.409Z,5.90
2022-11-26T21:23:58.463Z,6.10
2022-11-26T21:26:28.143Z,5.80
2022-11-26T21:28:57.756Z,5.80
2022-11-26T21:31:26.531Z,5.80
2022-11-26T21:34:00.640Z,5.60
2022-11-26T21:36:29.772Z,5.70
2022-11-26T21:38:57.844Z,5.80
2022-11-26T21:41:27.834Z,6.30
2022-11-26T21:43:55.693Z,5.80
2022-11-26T21:46:25.370Z,6.20
2022-11-26T21:48:53.759Z,5.80
2022-11-26T21:51:22.270Z,5.80
2022-11-26T21:53:50.477Z,5.80
2022-11-26T21:56:19.966Z,5.80
2022-11-26T21:58:49.717Z,5.70
2022-11-26T22:01:20.161Z,5.70
2022-11-26T22:03:51.471Z,5.80
2022-11-26T22:06:21.092Z,5.70
2022-11-26T22:08:49.071Z,5.70
2022-11-26T22:11:18.853Z,5.70
2022-11-26T22:13:47.038Z,5.70
2022-11-26T22:16:17.984Z,5.70
2022-11-26T22:18:47.039Z,5.60
2022-11-26T22:21:17.095Z,5.60
2022-11-26T22:23:45.308Z,5.70
2022-11-26T22:26:13.300Z,5.50
2022-11-26T22:28:41.372Z,5.50
2022-11-26T22:31:11.467Z,5.50
2022-11-26T22:33:41.936Z,5.50
2022-11-26T22:36:10.390Z,5.70
2022-11-26T22:38:39.273Z,5.50
2022-11-26T22:41:10.245Z,5.70
2022-11-26T22:43:38.308Z,5.40
2022-11-26T22:46:06.893Z,5.40
2022-11-26T22:48:35.125Z,5.40
2022-11-26T22:51:04.784Z,5.40
2022-11-26T22:53:34.254Z,5.40
2022-11-26T22:56:03.919Z,5.40
2022-11-26T22:58:33.621Z,5.40
2022-11-26T23:01:03.736Z,5.30
2022-11-26T23:03:33.909Z,5.40
2022-11-26T23:06:05.299Z,5.30
2022-11-26T23:08:33.613Z,5.30
2022-11-26T23:11:06.676Z,5.30
2022-11-26T23:13:34.612Z,5.30
2022-11-26T23:16:02.521Z,5.30
2022-11-26T23:18:30.376Z,5.30
2022-11-26T23:21:07.616Z,5.30
2022-11-26T23:23:35.962Z,5.30
2022-11-26T23:26:04.900Z,5.30
2022-11-26T23:28:33.214Z,5.20
2022-11-26T23:31:02.550Z,5.20
2022-11-26T23:33:30.476Z,5.10
2022-11-26T23:35:58.743Z,5.60
2022-11-26T23:38:28.158Z,5.20
2022-11-26T23:40:57.294Z,5.20
2022-11-26T23:43:25.720Z,5.30
2022-11-26T23:46:01.598Z,5.20
2022-11-26T23:48:29.546Z,5.30
2022-11-26T23:50:57.484Z,5.30
2022-11-26T23:53:27.106Z,5.40
2022-11-26T23:55:54.933Z,5.40
2022-11-26T23:58:22.756Z,5.20
